Terminal Aerodrome Forecast
Issued by NWS

Home | Current Version | Previous Version | Text Only | Print | Product List | Glossary On
Versions: 1 2 3 4 5 6 7 8 9 10 11 12 13 14 15 16 17 18 19 20 21 22 23 24 25 26
209
FTUS45 KPIH 110532
TAFSUN
TAF
KSUN 110532Z 1106/1206 31008KT P6SM SCT015
     FM111800 25006KT P6SM VCSH SCT025 BKN040
     FM120000 24010KT P6SM -SN SCT008 OVC015
     FM120300 25010KT P6SM VCSH BKN008 OVC015
      AMD LTD TO CLD VIS AND WIND TIL 111400=

USA.gov is the U.S. government's official web portal to all federal, state and local government web resources and services.